Time;durP1;ratioP1;P1;durP2;ratioP2;P2;SDS_P1;SDS_P2;PMS_P1;PMS_P2;Temp;Humidity;BMP_temperature;BMP_pressure;BME280_temperature;BME280_humidity;BME280_pressure;Samples;Min_cycle;Max_cycle;Signal;HPM_P1;HPM_P2
2023/09/26 00:01:30;;;;;;;11.88;8.55;;;;;;;;;;5005601;28;100276;-76
2023/09/26 00:03:56;;;;;;;12.43;9.40;;;;;;;;;;5007719;28;99162;-77
2023/09/26 00:06:24;;;;;;;9.95;8.35;;;;;;;;;;5005123;28;99490;-76
2023/09/26 00:08:55;;;;;;;16.13;8.77;;;;;;;;;;4999698;28;100109;-75
2023/09/26 00:11:21;;;;;;;11.05;8.52;;;;;;;;;;5002608;27;100115;-74
2023/09/26 00:13:49;;;;;;;10.68;9.68;;;;;;;;;;5002378;28;100653;-74
2023/09/26 00:16:16;;;;;;;12.73;9.18;;;;;;;;;;4994576;28;100527;-76
2023/09/26 00:18:42;;;;;;;14.13;8.82;;;;;;;;;;4999903;28;100198;-76
2023/09/26 00:21:12;;;;;;;14.48;10.13;;;;;;;;;;4995233;28;100105;-74
2023/09/26 00:23:38;;;;;;;10.90;9.57;;;;;;;;;;4993419;28;100401;-76
2023/09/26 00:26:07;;;;;;;14.98;9.40;;;;;;;;;;4996068;28;100221;-75
2023/09/26 00:28:37;;;;;;;15.17;9.70;;;;;;;;;;4994538;28;99614;-76
2023/09/26 00:31:04;;;;;;;11.00;9.02;;;;;;;;;;5002692;28;100469;-75
2023/09/26 00:33:32;;;;;;;11.90;10.50;;;;;;;;;;5005188;28;98633;-75
2023/09/26 00:36:10;;;;;;;11.02;9.95;;;;;;;;;;5005167;28;99824;-75
2023/09/26 00:38:37;;;;;;;13.52;11.52;;;;;;;;;;5006586;28;99588;-76
2023/09/26 00:41:03;;;;;;;12.98;10.15;;;;;;;;;;5006168;28;99067;-77
2023/09/26 00:43:30;;;;;;;16.50;11.38;;;;;;;;;;5005016;28;99016;-76
2023/09/26 00:45:59;;;;;;;11.98;10.82;;;;;;;;;;5005720;28;100377;-76
2023/09/26 00:48:26;;;;;;;16.30;11.23;;;;;;;;;;5005945;28;99543;-75
2023/09/26 00:50:53;;;;;;;11.93;10.65;;;;;;;;;;4995884;28;100085;-74
2023/09/26 00:53:23;;;;;;;12.90;11.50;;;;;;;;;;5009354;28;99252;-77
2023/09/26 00:55:54;;;;;;;13.15;11.48;;;;;;;;;;5006856;28;99294;-75
2023/09/26 00:58:25;;;;;;;12.77;10.70;;;;;;;;;;5003406;28;101640;-77
2023/09/26 01:00:55;;;;;;;17.25;11.52;;;;;;;;;;5005290;28;100077;-76
2023/09/26 01:03:22;;;;;;;13.63;12.18;;;;;;;;;;5005284;28;100470;-76
2023/09/26 01:05:49;;;;;;;13.95;12.45;;;;;;;;;;5003807;28;100034;-75
2023/09/26 01:08:16;;;;;;;21.77;12.18;;;;;;;;;;4994753;28;99710;-75
2023/09/26 01:10:42;;;;;;;15.95;11.85;;;;;;;;;;4996745;28;100860;-76
2023/09/26 01:13:09;;;;;;;15.27;11.65;;;;;;;;;;5009368;28;99957;-76
2023/09/26 01:15:38;;;;;;;11.85;10.65;;;;;;;;;;5000611;28;100720;-76
2023/09/26 01:18:12;;;;;;;12.38;11.15;;;;;;;;;;4992455;28;101130;-76
2023/09/26 01:20:39;;;;;;;14.02;11.95;;;;;;;;;;4998374;28;100386;-75
2023/09/26 01:23:06;;;;;;;14.18;11.05;;;;;;;;;;4995946;28;100113;-76
2023/09/26 01:25:35;;;;;;;13.07;11.75;;;;;;;;;;4993959;28;101384;-75
2023/09/26 01:28:06;;;;;;;12.48;11.35;;;;;;;;;;4996123;28;99547;-76
2023/09/26 01:30:37;;;;;;;13.65;11.43;;;;;;;;;;4997378;28;98689;-75
2023/09/26 01:33:04;;;;;;;15.10;10.63;;;;;;;;;;4994023;28;100256;-76
2023/09/26 01:35:31;;;;;;;14.45;11.10;;;;;;;;;;4997872;28;99670;-77
2023/09/26 01:37:57;;;;;;;12.65;11.10;;;;;;;;;;4996915;28;99804;-75
2023/09/26 01:40:24;;;;;;;14.90;11.63;;;;;;;;;;4993199;28;99882;-76
2023/09/26 01:42:51;;;;;;;12.18;10.98;;;;;;;;;;4996892;28;99169;-76
2023/09/26 01:45:18;;;;;;;14.80;11.70;;;;;;;;;;4996830;28;100063;-76
2023/09/26 01:47:46;;;;;;;12.52;11.25;;;;;;;;;;4994815;28;99929;-76
2023/09/26 01:50:13;;;;;;;13.60;10.93;;;;;;;;;;4994773;28;100631;-74
2023/09/26 01:52:40;;;;;;;20.73;11.48;;;;;;;;;;4993578;28;100643;-76
2023/09/26 01:55:07;;;;;;;10.85;9.85;;;;;;;;;;4999010;28;100472;-75
2023/09/26 01:57:34;;;;;;;13.55;10.85;;;;;;;;;;4998185;28;100240;-75
2023/09/26 02:00:05;;;;;;;13.27;10.77;;;;;;;;;;4998150;28;99875;-75
2023/09/26 02:02:41;;;;;;;13.75;11.23;;;;;;;;;;4993170;28;99897;-75
2023/09/26 02:05:12;;;;;;;11.63;10.27;;;;;;;;;;4994387;28;101502;-74
2023/09/26 02:07:39;;;;;;;12.45;11.20;;;;;;;;;;4996030;28;100075;-75
2023/09/26 02:10:07;;;;;;;12.27;10.75;;;;;;;;;;4997415;28;99579;-74
2023/09/26 02:12:34;;;;;;;13.73;11.85;;;;;;;;;;4995312;28;100102;-75
2023/09/26 02:15:04;;;;;;;12.75;11.40;;;;;;;;;;4996756;28;100729;-76
2023/09/26 02:17:33;;;;;;;13.77;11.27;;;;;;;;;;5002855;28;102068;-76
2023/09/26 02:20:08;;;;;;;16.33;11.70;;;;;;;;;;5005066;28;100839;-76
2023/09/26 02:22:35;;;;;;;14.35;12.05;;;;;;;;;;5004371;28;101913;-76
2023/09/26 02:25:02;;;;;;;15.93;12.52;;;;;;;;;;5003089;28;99271;-75
2023/09/26 02:27:28;;;;;;;20.58;12.98;;;;;;;;;;5003167;28;100046;-75
2023/09/26 02:29:55;;;;;;;17.85;13.25;;;;;;;;;;5035793;27;100049;-75
2023/09/26 02:32:21;;;;;;;14.88;12.82;;;;;;;;;;5002813;28;101349;-75
2023/09/26 02:34:48;;;;;;;13.50;11.98;;;;;;;;;;5004326;28;100831;-76
2023/09/26 02:37:14;;;;;;;15.60;12.18;;;;;;;;;;5007884;28;99880;-75
2023/09/26 02:39:41;;;;;;;16.45;13.18;;;;;;;;;;5003942;28;100311;-75
2023/09/26 02:42:07;;;;;;;12.90;11.52;;;;;;;;;;5007025;28;100081;-74
2023/09/26 02:44:35;;;;;;;12.68;11.38;;;;;;;;;;5002581;28;101823;-74
2023/09/26 02:47:01;;;;;;;18.35;12.73;;;;;;;;;;5003882;28;100293;-75
2023/09/26 02:49:28;;;;;;;12.85;11.68;;;;;;;;;;5002702;28;101209;-75
2023/09/26 02:51:54;;;;;;;12.93;11.73;;;;;;;;;;5002266;28;100465;-75
2023/09/26 02:54:21;;;;;;;13.88;10.77;;;;;;;;;;4994524;28;100120;-75
2023/09/26 02:56:47;;;;;;;15.07;11.35;;;;;;;;;;5010724;28;101949;-76
2023/09/26 02:59:14;;;;;;;13.50;11.95;;;;;;;;;;4995660;28;100004;-75
2023/09/26 03:01:40;;;;;;;13.40;11.57;;;;;;;;;;4998684;28;100177;-75
2023/09/26 03:04:07;;;;;;;17.00;11.65;;;;;;;;;;4999731;28;100809;-74
2023/09/26 03:06:34;;;;;;;20.90;11.93;;;;;;;;;;4994205;28;99680;-76
2023/09/26 03:09:01;;;;;;;22.17;11.57;;;;;;;;;;4995914;28;99823;-75
2023/09/26 03:11:27;;;;;;;16.88;11.43;;;;;;;;;;4993711;28;101637;-74
2023/09/26 03:13:53;;;;;;;12.18;10.95;;;;;;;;;;4995691;28;100497;-75
2023/09/26 03:16:20;;;;;;;14.63;11.10;;;;;;;;;;4997572;28;98871;-75
2023/09/26 03:18:48;;;;;;;16.48;12.60;;;;;;;;;;5002325;28;99998;-75
2023/09/26 03:21:16;;;;;;;14.52;11.32;;;;;;;;;;5003735;28;98407;-75
2023/09/26 03:23:43;;;;;;;12.68;10.70;;;;;;;;;;4996413;28;99945;-76
2023/09/26 03:26:10;;;;;;;12.30;10.80;;;;;;;;;;4996779;28;100213;-74
2023/09/26 03:28:38;;;;;;;14.45;12.40;;;;;;;;;;4991893;28;100965;-76
2023/09/26 03:31:08;;;;;;;12.20;10.93;;;;;;;;;;4996887;28;99479;-77
2023/09/26 03:33:35;;;;;;;13.10;11.25;;;;;;;;;;4997204;28;100179;-75
2023/09/26 03:36:05;;;;;;;12.48;10.05;;;;;;;;;;4994560;28;101814;-74
2023/09/26 03:38:31;;;;;;;11.55;10.55;;;;;;;;;;4990165;28;99593;-75
2023/09/26 03:40:59;;;;;;;11.88;10.20;;;;;;;;;;4995833;28;101538;-75
2023/09/26 03:43:29;;;;;;;14.80;10.75;;;;;;;;;;4994473;28;99921;-76
2023/09/26 03:46:02;;;;;;;11.20;10.05;;;;;;;;;;4992884;28;100262;-76
2023/09/26 03:48:30;;;;;;;12.20;11.02;;;;;;;;;;5007809;28;100249;-75
2023/09/26 03:51:06;;;;;;;12.48;11.20;;;;;;;;;;5006861;28;100723;-74
2023/09/26 03:53:32;;;;;;;12.23;9.57;;;;;;;;;;5000435;28;100118;-75
2023/09/26 03:55:59;;;;;;;13.63;10.77;;;;;;;;;;5005656;28;99143;-75
2023/09/26 03:58:25;;;;;;;12.32;10.38;;;;;;;;;;5006292;28;99086;-75
2023/09/26 04:00:52;;;;;;;12.02;10.63;;;;;;;;;;5007605;28;100155;-75
2023/09/26 04:03:19;;;;;;;11.80;10.60;;;;;;;;;;5007351;27;100232;-76
2023/09/26 04:05:55;;;;;;;10.57;9.57;;;;;;;;;;5006730;28;100268;-75
2023/09/26 04:08:22;;;;;;;13.13;9.85;;;;;;;;;;5006229;28;100640;-76
2023/09/26 04:10:48;;;;;;;15.38;11.15;;;;;;;;;;5011496;28;100104;-76
2023/09/26 04:13:14;;;;;;;12.38;10.38;;;;;;;;;;5006431;28;100800;-75
2023/09/26 04:15:41;;;;;;;15.82;10.88;;;;;;;;;;5005465;28;100191;-75
2023/09/26 04:18:07;;;;;;;12.63;11.25;;;;;;;;;;5008923;28;100018;-74
2023/09/26 04:20:37;;;;;;;14.73;11.80;;;;;;;;;;5008810;27;100818;-74
2023/09/26 04:23:03;;;;;;;15.23;11.30;;;;;;;;;;4998770;28;101522;-77
2023/09/26 04:25:31;;;;;;;14.32;11.63;;;;;;;;;;5002448;28;99031;-74
2023/09/26 04:27:58;;;;;;;17.73;12.02;;;;;;;;;;5005270;28;100158;-75
2023/09/26 04:30:24;;;;;;;17.80;11.88;;;;;;;;;;5002988;28;99915;-74
2023/09/26 04:32:51;;;;;;;20.77;11.52;;;;;;;;;;5001476;28;99692;-75
2023/09/26 04:35:18;;;;;;;12.80;11.10;;;;;;;;;;4995110;28;100024;-74
2023/09/26 04:37:44;;;;;;;14.25;11.52;;;;;;;;;;4995345;28;99532;-77
2023/09/26 04:40:11;;;;;;;14.13;11.93;;;;;;;;;;4995399;28;99489;-76
2023/09/26 04:42:39;;;;;;;15.63;11.55;;;;;;;;;;4995775;28;100968;-75
2023/09/26 04:45:06;;;;;;;14.77;10.68;;;;;;;;;;4997700;28;100667;-75
2023/09/26 04:47:33;;;;;;;15.43;11.55;;;;;;;;;;4999160;28;100390;-76
2023/09/26 04:50:00;;;;;;;14.35;10.68;;;;;;;;;;5002453;28;100221;-74
2023/09/26 04:52:27;;;;;;;12.00;10.68;;;;;;;;;;5010031;27;99591;-76
2023/09/26 04:54:54;;;;;;;11.65;10.45;;;;;;;;;;4999288;28;100025;-77
2023/09/26 04:57:21;;;;;;;14.00;10.35;;;;;;;;;;5004709;28;99167;-76
2023/09/26 04:59:48;;;;;;;14.70;10.68;;;;;;;;;;5003560;28;99470;-74
2023/09/26 05:02:14;;;;;;;14.32;10.30;;;;;;;;;;5002132;28;100391;-76
2023/09/26 05:04:41;;;;;;;18.90;10.00;;;;;;;;;;4997387;28;99828;-76
2023/09/26 05:07:09;;;;;;;15.73;10.25;;;;;;;;;;4996488;28;100809;-74
2023/09/26 05:09:39;;;;;;;13.27;9.52;;;;;;;;;;4996528;28;100753;-75
2023/09/26 05:12:05;;;;;;;13.98;9.65;;;;;;;;;;4996690;28;99888;-76
2023/09/26 05:14:32;;;;;;;15.20;9.88;;;;;;;;;;5000975;28;99742;-76
2023/09/26 05:16:58;;;;;;;17.55;10.38;;;;;;;;;;4996023;28;100572;-75
2023/09/26 05:19:25;;;;;;;13.50;9.90;;;;;;;;;;5000908;28;99359;-75
2023/09/26 05:21:52;;;;;;;11.32;10.20;;;;;;;;;;5005023;28;98983;-75
2023/09/26 05:24:22;;;;;;;13.95;10.00;;;;;;;;;;5003747;28;99185;-75
2023/09/26 05:26:49;;;;;;;18.17;10.52;;;;;;;;;;5001440;28;101196;-76
2023/09/26 05:29:15;;;;;;;12.50;10.15;;;;;;;;;;5004929;28;100632;-75
2023/09/26 05:31:42;;;;;;;10.85;9.75;;;;;;;;;;4998718;28;100281;-75
2023/09/26 05:34:09;;;;;;;11.43;10.10;;;;;;;;;;4998837;28;102401;-76
2023/09/26 05:36:35;;;;;;;12.75;10.48;;;;;;;;;;5001134;28;102170;-76
2023/09/26 05:39:02;;;;;;;14.38;10.20;;;;;;;;;;4997975;28;100569;-76
2023/09/26 05:41:28;;;;;;;13.27;10.77;;;;;;;;;;4995598;28;101446;-76
2023/09/26 05:43:55;;;;;;;11.20;10.10;;;;;;;;;;4998847;28;100734;-77
2023/09/26 05:46:21;;;;;;;11.75;9.07;;;;;;;;;;4993804;28;100227;-75
2023/09/26 05:48:50;;;;;;;16.55;9.70;;;;;;;;;;4996462;28;98979;-75
2023/09/26 05:51:16;;;;;;;14.80;10.15;;;;;;;;;;5004061;28;99353;-74
2023/09/26 05:53:43;;;;;;;12.70;9.95;;;;;;;;;;5003966;28;100221;-76
2023/09/26 05:56:09;;;;;;;13.98;10.77;;;;;;;;;;4994895;28;100078;-76
2023/09/26 05:58:36;;;;;;;13.48;9.95;;;;;;;;;;5000063;28;100625;-75
2023/09/26 06:01:06;;;;;;;13.27;10.20;;;;;;;;;;5004063;28;100175;-76
2023/09/26 06:03:33;;;;;;;11.95;9.45;;;;;;;;;;5002060;28;100045;-77
2023/09/26 06:06:03;;;;;;;10.20;9.10;;;;;;;;;;5002857;28;101272;-75
2023/09/26 06:08:33;;;;;;;13.90;9.93;;;;;;;;;;5003515;28;100225;-76
2023/09/26 06:11:00;;;;;;;12.98;9.30;;;;;;;;;;5002673;28;99070;-74
2023/09/26 06:13:26;;;;;;;12.35;9.40;;;;;;;;;;5003040;28;99898;-76
2023/09/26 06:15:53;;;;;;;12.32;10.15;;;;;;;;;;5003704;28;100145;-75
2023/09/26 06:18:20;;;;;;;16.52;10.02;;;;;;;;;;5004932;28;100172;-75
2023/09/26 06:20:46;;;;;;;16.00;8.57;;;;;;;;;;5006671;28;100893;-76
2023/09/26 06:23:13;;;;;;;11.80;8.60;;;;;;;;;;5004263;28;101793;-75
2023/09/26 06:25:39;;;;;;;13.55;11.02;;;;;;;;;;4998366;28;99696;-76
2023/09/26 06:28:21;;;;;;;15.98;9.23;;;;;;;;;;5000039;28;99345;-75
2023/09/26 06:30:48;;;;;;;18.23;9.20;;;;;;;;;;5004385;28;99869;-74
2023/09/26 06:33:14;;;;;;;15.45;9.27;;;;;;;;;;5004183;28;100473;-77
2023/09/26 06:35:41;;;;;;;11.13;9.93;;;;;;;;;;5003935;28;99847;-76
2023/09/26 06:38:08;;;;;;;14.75;9.32;;;;;;;;;;5000152;28;100097;-75
2023/09/26 06:40:34;;;;;;;9.85;8.63;;;;;;;;;;4994829;28;100318;-77
2023/09/26 06:43:02;;;;;;;18.30;9.23;;;;;;;;;;5005899;28;98651;-76
2023/09/26 06:45:29;;;;;;;13.95;9.63;;;;;;;;;;5001996;28;100028;-78
2023/09/26 06:47:56;;;;;;;13.88;9.43;;;;;;;;;;5004311;28;99144;-78
2023/09/26 06:50:23;;;;;;;14.60;9.25;;;;;;;;;;5003132;28;99563;-76
2023/09/26 06:52:49;;;;;;;10.73;8.73;;;;;;;;;;5003921;28;99159;-77
2023/09/26 06:55:16;;;;;;;13.48;8.50;;;;;;;;;;5003218;28;99275;-76
2023/09/26 06:57:43;;;;;;;11.57;8.75;;;;;;;;;;5010238;28;99415;-76
2023/09/26 07:00:16;;;;;;;14.32;9.20;;;;;;;;;;5015586;28;98687;-77
2023/09/26 07:02:43;;;;;;;10.88;8.88;;;;;;;;;;5010837;28;98890;-75
2023/09/26 07:05:09;;;;;;;16.45;8.35;;;;;;;;;;5003515;28;99666;-75
2023/09/26 07:07:36;;;;;;;12.27;8.95;;;;;;;;;;5003004;28;98988;-76
2023/09/26 07:10:03;;;;;;;10.05;9.05;;;;;;;;;;5003248;28;99981;-76
2023/09/26 07:12:30;;;;;;;14.57;8.70;;;;;;;;;;5002621;28;99545;-77
2023/09/26 07:14:56;;;;;;;16.05;8.32;;;;;;;;;;5005096;28;100226;-75
2023/09/26 07:17:23;;;;;;;22.15;9.02;;;;;;;;;;5006300;28;100055;-77
2023/09/26 07:19:50;;;;;;;9.57;7.88;;;;;;;;;;5006971;28;100268;-77
2023/09/26 07:22:17;;;;;;;12.45;8.73;;;;;;;;;;5006376;28;100272;-76
2023/09/26 07:24:47;;;;;;;12.23;8.30;;;;;;;;;;5009765;28;99219;-76
2023/09/26 07:27:17;;;;;;;9.70;8.68;;;;;;;;;;4999159;28;99474;-76
2023/09/26 07:29:44;;;;;;;14.50;9.00;;;;;;;;;;5003872;28;99616;-75
2023/09/26 07:32:11;;;;;;;9.80;8.90;;;;;;;;;;4993391;28;100894;-75
2023/09/26 07:34:37;;;;;;;14.80;8.75;;;;;;;;;;4998531;28;100889;-77
2023/09/26 07:37:04;;;;;;;13.40;9.07;;;;;;;;;;4999532;28;103018;-78
2023/09/26 07:39:31;;;;;;;9.98;8.88;;;;;;;;;;5000427;28;99971;-75
2023/09/26 07:41:57;;;;;;;14.35;8.73;;;;;;;;;;4996884;28;100499;-76
2023/09/26 07:44:24;;;;;;;12.95;8.98;;;;;;;;;;5003019;28;100235;-77
2023/09/26 07:46:50;;;;;;;16.02;9.18;;;;;;;;;;4999900;28;99472;-77
2023/09/26 07:49:17;;;;;;;15.23;8.48;;;;;;;;;;4995186;28;101431;-76
2023/09/26 07:51:43;;;;;;;13.70;9.25;;;;;;;;;;4996843;28;99460;-76
2023/09/26 07:54:11;;;;;;;11.25;9.63;;;;;;;;;;5005373;28;100370;-80
2023/09/26 07:56:37;;;;;;;10.98;8.77;;;;;;;;;;5020183;28;99538;-79
2023/09/26 07:59:04;;;;;;;13.15;8.48;;;;;;;;;;5008232;28;99587;-77
2023/09/26 08:01:31;;;;;;;14.30;8.38;;;;;;;;;;5006087;28;99270;-76
2023/09/26 08:03:58;;;;;;;9.07;8.10;;;;;;;;;;5005573;28;100840;-77
2023/09/26 08:06:25;;;;;;;13.07;9.27;;;;;;;;;;5003583;28;100510;-78
2023/09/26 08:08:51;;;;;;;11.55;9.50;;;;;;;;;;5017228;28;98961;-78
2023/09/26 08:11:18;;;;;;;10.68;8.93;;;;;;;;;;5004859;28;100336;-77
2023/09/26 08:13:44;;;;;;;7.05;6.35;;;;;;;;;;5006745;28;98700;-76
2023/09/26 08:16:10;;;;;;;9.60;8.68;;;;;;;;;;5006159;28;100469;-77
2023/09/26 08:18:37;;;;;;;15.05;8.13;;;;;;;;;;5006422;28;100534;-78
2023/09/26 08:21:04;;;;;;;16.35;8.82;;;;;;;;;;5005303;28;99249;-76
2023/09/26 08:23:31;;;;;;;10.32;7.93;;;;;;;;;;5002766;28;99327;-76
2023/09/26 08:26:02;;;;;;;11.00;8.38;;;;;;;;;;5004880;28;99558;-75
2023/09/26 08:28:30;;;;;;;17.42;8.70;;;;;;;;;;5000670;28;100075;-75
2023/09/26 08:31:02;;;;;;;8.48;7.57;;;;;;;;;;5002322;28;100138;-76
2023/09/26 08:33:29;;;;;;;;;;;;;;;;;;5006139;28;100349;-76
2023/09/26 08:35:55;;;;;;;16.23;8.40;;;;;;;;;;5005570;28;99545;-76
2023/09/26 08:38:22;;;;;;;13.88;8.52;;;;;;;;;;5005489;28;99353;-78
2023/09/26 08:40:51;;;;;;;13.18;8.43;;;;;;;;;;5006079;28;99601;-76
2023/09/26 08:43:26;;;;;;;20.30;7.72;;;;;;;;;;5005327;28;98662;-76
2023/09/26 08:45:53;;;;;;;9.32;8.43;;;;;;;;;;5004599;28;100260;-75
2023/09/26 08:48:20;;;;;;;14.93;8.38;;;;;;;;;;5002629;28;100144;-76
2023/09/26 08:50:49;;;;;;;8.68;7.43;;;;;;;;;;5011356;28;100718;-75
2023/09/26 08:53:15;;;;;;;17.52;7.90;;;;;;;;;;5010850;28;100255;-76
2023/09/26 08:55:43;;;;;;;13.75;7.38;;;;;;;;;;5008801;28;99972;-76
2023/09/26 08:58:10;;;;;;;9.27;7.47;;;;;;;;;;5005498;28;100719;-75
2023/09/26 09:00:37;;;;;;;9.75;7.65;;;;;;;;;;5005935;28;99192;-76
2023/09/26 09:03:03;;;;;;;17.73;7.20;;;;;;;;;;5004693;28;99968;-76
2023/09/26 09:05:30;;;;;;;8.75;7.85;;;;;;;;;;5005571;28;99761;-76
2023/09/26 09:07:56;;;;;;;15.35;7.90;;;;;;;;;;5005434;28;99984;-76
2023/09/26 09:10:23;;;;;;;8.85;7.22;;;;;;;;;;5004306;28;100061;-75
2023/09/26 09:13:00;;;;;;;12.38;7.28;;;;;;;;;;5008104;28;100326;-75
2023/09/26 09:15:28;;;;;;;10.35;7.65;;;;;;;;;;5004873;28;100609;-78
2023/09/26 09:17:54;;;;;;;9.10;7.90;;;;;;;;;;5004697;28;100232;-76
2023/09/26 09:20:29;;;;;;;8.50;7.25;;;;;;;;;;5004912;28;100004;-75
2023/09/26 09:23:02;;;;;;;8.90;7.65;;;;;;;;;;5005053;28;99828;-75
2023/09/26 09:25:29;;;;;;;13.68;7.78;;;;;;;;;;5004639;28;99628;-76
2023/09/26 09:27:58;;;;;;;10.93;7.35;;;;;;;;;;5005198;28;99145;-75
2023/09/26 09:30:25;;;;;;;19.20;7.53;;;;;;;;;;5002422;28;99832;-77
2023/09/26 09:32:51;;;;;;;9.55;7.32;;;;;;;;;;4992699;28;100456;-75
2023/09/26 09:35:18;;;;;;;8.15;6.53;;;;;;;;;;4998643;28;100094;-75
2023/09/26 09:37:46;;;;;;;9.45;7.20;;;;;;;;;;4989860;28;100002;-76
2023/09/26 09:40:20;;;;;;;8.75;7.30;;;;;;;;;;4992729;28;100471;-76
2023/09/26 09:42:49;;;;;;;8.25;7.28;;;;;;;;;;4994536;28;100880;-76
2023/09/26 09:45:16;;;;;;;9.68;6.90;;;;;;;;;;4991363;28;100273;-75
2023/09/26 09:47:46;;;;;;;9.85;7.43;;;;;;;;;;5002229;28;99996;-75
2023/09/26 09:50:14;;;;;;;7.15;6.35;;;;;;;;;;5002046;28;100106;-75
2023/09/26 09:52:43;;;;;;;9.88;5.88;;;;;;;;;;4996100;28;100296;-77
2023/09/26 09:55:13;;;;;;;7.32;6.57;;;;;;;;;;4992759;28;100465;-78
2023/09/26 09:57:44;;;;;;;6.03;5.07;;;;;;;;;;4996227;28;100082;-75
2023/09/26 10:00:12;;;;;;;9.70;6.10;;;;;;;;;;4995752;28;100841;-77
2023/09/26 10:02:38;;;;;;;10.70;6.13;;;;;;;;;;4995751;28;100071;-78
2023/09/26 10:05:12;;;;;;;7.15;5.93;;;;;;;;;;4997091;28;100230;-75
2023/09/26 10:07:40;;;;;;;12.13;6.30;;;;;;;;;;4990284;28;100552;-75
2023/09/26 10:10:09;;;;;;;15.40;6.22;;;;;;;;;;4989043;28;100486;-75
2023/09/26 10:12:37;;;;;;;9.93;6.28;;;;;;;;;;4990811;28;100284;-77
2023/09/26 10:15:06;;;;;;;9.63;6.57;;;;;;;;;;4988582;28;100014;-75
2023/09/26 10:17:32;;;;;;;6.70;6.10;;;;;;;;;;4992097;28;100488;-77
2023/09/26 10:19:59;;;;;;;11.30;6.35;;;;;;;;;;4995924;27;100003;-76
2023/09/26 10:22:46;;;;;;;14.32;5.68;;;;;;;;;;4988999;28;100223;-75
2023/09/26 10:25:19;;;;;;;10.63;5.50;;;;;;;;;;4987116;28;100403;-76
2023/09/26 10:27:50;;;;;;;9.82;5.20;;;;;;;;;;4986286;28;101447;-77
2023/09/26 10:30:26;;;;;;;6.35;5.28;;;;;;;;;;4988358;28;100701;-76
2023/09/26 10:32:54;;;;;;;9.95;5.07;;;;;;;;;;4993170;28;100154;-77
2023/09/26 10:35:22;;;;;;;12.70;5.45;;;;;;;;;;5003173;28;100054;-76
2023/09/26 10:38:00;;;;;;;6.35;5.13;;;;;;;;;;5003411;28;100241;-76
2023/09/26 10:40:31;;;;;;;5.43;4.93;;;;;;;;;;5003406;28;99261;-79
2023/09/26 10:42:59;;;;;;;5.90;5.28;;;;;;;;;;4999924;28;100189;-76
2023/09/26 10:45:28;;;;;;;6.70;5.35;;;;;;;;;;4991762;28;100730;-76
2023/09/26 10:47:55;;;;;;;5.50;5.00;;;;;;;;;;4993388;28;99969;-78
2023/09/26 10:50:42;;;;;;;4.55;4.15;;;;;;;;;;5006476;28;100115;-78
2023/09/26 10:53:08;;;;;;;5.78;4.82;;;;;;;;;;4989186;28;101162;-79
2023/09/26 10:55:36;;;;;;;5.78;4.97;;;;;;;;;;4998365;28;99571;-77
2023/09/26 10:58:04;;;;;;;13.43;5.00;;;;;;;;;;4999686;28;100079;-78
2023/09/26 11:00:30;;;;;;;7.80;5.05;;;;;;;;;;4990310;28;100834;-79
2023/09/26 11:02:57;;;;;;;5.63;5.05;;;;;;;;;;4994837;28;100175;-78
2023/09/26 11:05:44;;;;;;;6.57;4.65;;;;;;;;;;4990625;28;100258;-76
2023/09/26 11:08:11;;;;;;;7.03;4.75;;;;;;;;;;4997582;27;100134;-78
2023/09/26 11:10:47;;;;;;;7.72;4.47;;;;;;;;;;5003534;28;98620;-76
2023/09/26 11:13:14;;;;;;;7.05;4.18;;;;;;;;;;4991381;28;100165;-80
2023/09/26 11:15:45;;;;;;;8.80;3.60;;;;;;;;;;4998964;28;102113;-76
2023/09/26 11:18:12;;;;;;;4.00;3.63;;;;;;;;;;5001761;28;99735;-77
2023/09/26 11:20:40;;;;;;;7.53;3.42;;;;;;;;;;5003735;28;99956;-77
2023/09/26 11:23:33;;;;;;;6.93;3.47;;;;;;;;;;4989938;28;100025;-77
2023/09/26 11:26:03;;;;;;;4.28;3.45;;;;;;;;;;5001307;28;100248;-78
2023/09/26 11:28:30;;;;;;;3.60;3.28;;;;;;;;;;4999079;28;100071;-78
2023/09/26 11:30:57;;;;;;;8.10;3.83;;;;;;;;;;4990859;28;100146;-78
2023/09/26 11:33:23;;;;;;;6.57;3.25;;;;;;;;;;5009213;28;99622;-77
2023/09/26 11:35:50;;;;;;;9.23;3.60;;;;;;;;;;4988181;28;99411;-77
2023/09/26 11:38:17;;;;;;;6.85;3.88;;;;;;;;;;4987181;28;100192;-76
2023/09/26 11:40:44;;;;;;;4.80;3.80;;;;;;;;;;4991900;28;101332;-77
2023/09/26 11:43:11;;;;;;;7.20;3.42;;;;;;;;;;4997192;28;100934;-76
2023/09/26 11:45:37;;;;;;;9.02;4.00;;;;;;;;;;4994461;28;100308;-78
2023/09/26 11:48:07;;;;;;;7.07;3.85;;;;;;;;;;4993823;28;100651;-77
2023/09/26 11:50:35;;;;;;;4.72;3.75;;;;;;;;;;4992010;28;100545;-76
2023/09/26 11:53:02;;;;;;;3.92;3.30;;;;;;;;;;4987814;28;100118;-76
2023/09/26 11:55:32;;;;;;;3.17;2.97;;;;;;;;;;4991869;28;99934;-77
2023/09/26 11:57:59;;;;;;;5.07;3.22;;;;;;;;;;4990360;28;99574;-77
2023/09/26 12:00:26;;;;;;;9.60;3.78;;;;;;;;;;4990321;28;100038;-78
2023/09/26 12:02:55;;;;;;;5.90;3.85;;;;;;;;;;4993477;28;99482;-77
2023/09/26 12:05:22;;;;;;;3.53;3.22;;;;;;;;;;5002346;28;98835;-75
2023/09/26 12:07:49;;;;;;;6.95;3.45;;;;;;;;;;4998809;28;100594;-77
2023/09/26 12:10:16;;;;;;;5.90;3.47;;;;;;;;;;5005327;28;100150;-77
2023/09/26 12:12:43;;;;;;;7.55;4.05;;;;;;;;;;5003568;28;100114;-77
2023/09/26 12:15:19;;;;;;;4.20;3.55;;;;;;;;;;4995824;28;100152;-77
2023/09/26 12:17:52;;;;;;;10.45;3.30;;;;;;;;;;4999323;28;100495;-76
2023/09/26 12:20:24;;;;;;;9.43;4.07;;;;;;;;;;4992394;28;100391;-76
2023/09/26 12:22:53;;;;;;;6.72;4.32;;;;;;;;;;4995596;28;99479;-76
2023/09/26 12:25:22;;;;;;;8.30;3.92;;;;;;;;;;4993519;28;100247;-77
2023/09/26 12:27:50;;;;;;;7.68;4.25;;;;;;;;;;4991275;28;100580;-77
2023/09/26 12:30:18;;;;;;;5.13;3.60;;;;;;;;;;4991749;28;100277;-76
2023/09/26 12:32:45;;;;;;;3.88;3.58;;;;;;;;;;4999315;28;100947;-75
2023/09/26 12:35:12;;;;;;;5.45;3.40;;;;;;;;;;4990524;28;100536;-75
2023/09/26 12:37:40;;;;;;;6.47;3.60;;;;;;;;;;4996579;28;101013;-76
2023/09/26 12:40:12;;;;;;;5.60;3.80;;;;;;;;;;5000091;28;100051;-77
2023/09/26 12:42:40;;;;;;;7.22;4.10;;;;;;;;;;5004684;28;101220;-78
2023/09/26 12:45:07;;;;;;;9.40;4.40;;;;;;;;;;5007291;28;99532;-77
2023/09/26 12:47:33;;;;;;;5.20;4.70;;;;;;;;;;5006615;28;99485;-77
2023/09/26 12:50:04;;;;;;;5.20;4.57;;;;;;;;;;5006692;28;99210;-77
2023/09/26 12:52:34;;;;;;;4.40;4.07;;;;;;;;;;5006612;28;99195;-77
2023/09/26 12:55:01;;;;;;;4.70;4.30;;;;;;;;;;5009270;28;100132;-76
2023/09/26 12:57:27;;;;;;;4.05;3.75;;;;;;;;;;5005901;28;99908;-77
2023/09/26 12:59:55;;;;;;;6.93;4.50;;;;;;;;;;5007078;28;100573;-77
2023/09/26 13:02:24;;;;;;;6.28;4.50;;;;;;;;;;5005604;28;99056;-76
2023/09/26 13:04:55;;;;;;;8.13;3.83;;;;;;;;;;5006653;28;99805;-76
2023/09/26 13:07:22;;;;;;;9.27;3.20;;;;;;;;;;5005871;28;99709;-77
2023/09/26 13:09:48;;;;;;;4.18;3.47;;;;;;;;;;4993582;28;100449;-78
2023/09/26 13:12:15;;;;;;;4.47;3.20;;;;;;;;;;4985815;28;99112;-76
2023/09/26 13:14:41;;;;;;;6.47;3.45;;;;;;;;;;4990081;28;99736;-76
2023/09/26 13:17:15;;;;;;;4.20;2.75;;;;;;;;;;4985689;28;99185;-76
2023/09/26 13:19:42;;;;;;;4.13;3.28;;;;;;;;;;4986338;28;100053;-76
2023/09/26 13:22:09;;;;;;;4.18;3.80;;;;;;;;;;4985497;28;100202;-76
2023/09/26 13:24:37;;;;;;;5.45;3.47;;;;;;;;;;4986481;28;100989;-76
2023/09/26 13:27:04;;;;;;;6.20;3.53;;;;;;;;;;4990981;28;100742;-77
2023/09/26 13:29:31;;;;;;;4.72;3.00;;;;;;;;;;4997001;28;98940;-76
2023/09/26 13:31:57;;;;;;;8.25;4.15;;;;;;;;;;5006645;28;100594;-76
2023/09/26 13:34:26;;;;;;;9.07;4.20;;;;;;;;;;4988024;28;100315;-76
2023/09/26 13:36:52;;;;;;;4.40;3.92;;;;;;;;;;5017887;27;98964;-76
2023/09/26 13:39:19;;;;;;;4.93;3.47;;;;;;;;;;5018656;28;98595;-76
2023/09/26 13:41:45;;;;;;;3.63;3.10;;;;;;;;;;5013056;28;99348;-77
2023/09/26 13:44:12;;;;;;;5.00;4.50;;;;;;;;;;5005417;28;99953;-77
2023/09/26 13:46:39;;;;;;;7.13;4.05;;;;;;;;;;5004877;28;100083;-76
2023/09/26 13:49:06;;;;;;;6.95;4.22;;;;;;;;;;5004408;28;100432;-76
2023/09/26 13:51:33;;;;;;;5.85;5.07;;;;;;;;;;5004891;28;99924;-77
2023/09/26 13:53:59;;;;;;;4.90;3.75;;;;;;;;;;5005579;28;99792;-77
2023/09/26 13:56:26;;;;;;;4.25;3.88;;;;;;;;;;5004699;28;98971;-76
2023/09/26 13:58:53;;;;;;;6.97;4.22;;;;;;;;;;5008094;28;99936;-77
2023/09/26 14:01:20;;;;;;;5.80;4.20;;;;;;;;;;5005102;28;99668;-77
2023/09/26 14:03:47;;;;;;;4.75;4.20;;;;;;;;;;5005273;28;100097;-76
2023/09/26 14:06:14;;;;;;;5.50;4.22;;;;;;;;;;5004259;28;99394;-77
2023/09/26 14:08:41;;;;;;;4.07;3.78;;;;;;;;;;5001470;28;99108;-75
2023/09/26 14:11:09;;;;;;;6.95;4.65;;;;;;;;;;5004426;28;99998;-76
2023/09/26 14:13:35;;;;;;;5.18;4.78;;;;;;;;;;5003612;28;100609;-75
2023/09/26 14:16:02;;;;;;;5.60;4.65;;;;;;;;;;5003827;28;99058;-77
2023/09/26 14:18:28;;;;;;;5.07;4.50;;;;;;;;;;5003390;28;100143;-77
2023/09/26 14:20:57;;;;;;;6.43;4.32;;;;;;;;;;5007694;28;100522;-77
2023/09/26 14:23:24;;;;;;;4.97;4.50;;;;;;;;;;5001359;28;99152;-77
2023/09/26 14:25:51;;;;;;;4.72;4.25;;;;;;;;;;5003704;28;100871;-76
2023/09/26 14:28:18;;;;;;;7.65;4.55;;;;;;;;;;5005460;28;98788;-78